sensor_id;sensor_type;location;lat;lon;timestamp;P1;durP1;ratioP1;P2;durP2;ratioP2
20124;SDS011;10223;50.862;4.360;2024-01-07T00:00:40;14.57;;;8.47;;
20124;SDS011;10223;50.862;4.360;2024-01-07T00:03:07;15.20;;;8.77;;
20124;SDS011;10223;50.862;4.360;2024-01-07T00:05:36;14.70;;;9.27;;
20124;SDS011;10223;50.862;4.360;2024-01-07T00:08:04;13.13;;;8.37;;
20124;SDS011;10223;50.862;4.360;2024-01-07T00:10:34;16.13;;;8.87;;
20124;SDS011;10223;50.862;4.360;2024-01-07T00:13:01;15.40;;;8.53;;
20124;SDS011;10223;50.862;4.360;2024-01-07T00:15:27;15.60;;;9.20;;
20124;SDS011;10223;50.862;4.360;2024-01-07T00:17:54;13.83;;;8.67;;
20124;SDS011;10223;50.862;4.360;2024-01-07T00:20:21;17.27;;;8.67;;
20124;SDS011;10223;50.862;4.360;2024-01-07T00:22:50;15.07;;;8.87;;
20124;SDS011;10223;50.862;4.360;2024-01-07T00:25:17;14.70;;;9.33;;
20124;SDS011;10223;50.862;4.360;2024-01-07T00:27:44;14.87;;;9.03;;
20124;SDS011;10223;50.862;4.360;2024-01-07T00:30:11;16.43;;;9.80;;
20124;SDS011;10223;50.862;4.360;2024-01-07T00:32:38;16.20;;;9.37;;
20124;SDS011;10223;50.862;4.360;2024-01-07T00:35:05;17.00;;;9.70;;
20124;SDS011;10223;50.862;4.360;2024-01-07T00:37:33;17.57;;;9.63;;
20124;SDS011;10223;50.862;4.360;2024-01-07T00:40:02;17.20;;;9.73;;
20124;SDS011;10223;50.862;4.360;2024-01-07T00:42:30;15.60;;;9.53;;
20124;SDS011;10223;50.862;4.360;2024-01-07T00:44:56;16.10;;;9.80;;
20124;SDS011;10223;50.862;4.360;2024-01-07T00:47:23;15.27;;;9.10;;
20124;SDS011;10223;50.862;4.360;2024-01-07T00:49:50;16.77;;;9.83;;
20124;SDS011;10223;50.862;4.360;2024-01-07T00:52:17;16.13;;;10.30;;
20124;SDS011;10223;50.862;4.360;2024-01-07T00:54:46;15.17;;;9.77;;
20124;SDS011;10223;50.862;4.360;2024-01-07T00:57:14;15.87;;;10.10;;
20124;SDS011;10223;50.862;4.360;2024-01-07T00:59:41;13.73;;;9.27;;
20124;SDS011;10223;50.862;4.360;2024-01-07T01:02:08;14.30;;;9.23;;
20124;SDS011;10223;50.862;4.360;2024-01-07T01:04:37;15.10;;;9.43;;
20124;SDS011;10223;50.862;4.360;2024-01-07T01:07:04;16.90;;;9.90;;
20124;SDS011;10223;50.862;4.360;2024-01-07T01:09:32;18.27;;;10.37;;
20124;SDS011;10223;50.862;4.360;2024-01-07T01:11:59;15.97;;;9.73;;
20124;SDS011;10223;50.862;4.360;2024-01-07T01:14:28;16.17;;;10.30;;
20124;SDS011;10223;50.862;4.360;2024-01-07T01:16:54;14.57;;;9.60;;
20124;SDS011;10223;50.862;4.360;2024-01-07T01:19:21;15.27;;;9.67;;
20124;SDS011;10223;50.862;4.360;2024-01-07T01:21:48;15.13;;;9.13;;
20124;SDS011;10223;50.862;4.360;2024-01-07T01:24:15;15.00;;;9.23;;
20124;SDS011;10223;50.862;4.360;2024-01-07T01:26:42;16.57;;;9.50;;
20124;SDS011;10223;50.862;4.360;2024-01-07T01:29:09;15.03;;;9.07;;
20124;SDS011;10223;50.862;4.360;2024-01-07T01:31:37;16.67;;;10.23;;
20124;SDS011;10223;50.862;4.360;2024-01-07T01:34:04;15.57;;;9.60;;
20124;SDS011;10223;50.862;4.360;2024-01-07T01:36:30;15.60;;;9.47;;
20124;SDS011;10223;50.862;4.360;2024-01-07T01:38:57;18.93;;;9.50;;
20124;SDS011;10223;50.862;4.360;2024-01-07T01:41:24;14.37;;;9.57;;
20124;SDS011;10223;50.862;4.360;2024-01-07T01:43:51;15.27;;;9.30;;
20124;SDS011;10223;50.862;4.360;2024-01-07T01:46:22;14.40;;;9.40;;
20124;SDS011;10223;50.862;4.360;2024-01-07T01:48:51;15.57;;;9.67;;
20124;SDS011;10223;50.862;4.360;2024-01-07T01:51:18;14.93;;;9.43;;
20124;SDS011;10223;50.862;4.360;2024-01-07T01:53:46;16.23;;;10.37;;
20124;SDS011;10223;50.862;4.360;2024-01-07T01:56:15;19.80;;;11.27;;
20124;SDS011;10223;50.862;4.360;2024-01-07T01:58:45;17.80;;;11.13;;
20124;SDS011;10223;50.862;4.360;2024-01-07T02:01:12;17.20;;;11.77;;
20124;SDS011;10223;50.862;4.360;2024-01-07T02:03:39;21.20;;;12.90;;
20124;SDS011;10223;50.862;4.360;2024-01-07T02:06:08;18.17;;;11.50;;
20124;SDS011;10223;50.862;4.360;2024-01-07T02:08:35;17.93;;;11.23;;
20124;SDS011;10223;50.862;4.360;2024-01-07T02:11:13;20.47;;;11.83;;
20124;SDS011;10223;50.862;4.360;2024-01-07T02:13:42;19.87;;;12.40;;
20124;SDS011;10223;50.862;4.360;2024-01-07T02:16:09;17.70;;;11.10;;
20124;SDS011;10223;50.862;4.360;2024-01-07T02:18:36;19.43;;;11.40;;
20124;SDS011;10223;50.862;4.360;2024-01-07T02:21:03;20.40;;;11.87;;
20124;SDS011;10223;50.862;4.360;2024-01-07T02:23:32;17.13;;;9.53;;
20124;SDS011;10223;50.862;4.360;2024-01-07T02:26:00;16.27;;;10.10;;
20124;SDS011;10223;50.862;4.360;2024-01-07T02:28:27;18.00;;;11.10;;
20124;SDS011;10223;50.862;4.360;2024-01-07T02:30:54;17.30;;;10.47;;
20124;SDS011;10223;50.862;4.360;2024-01-07T02:33:21;16.73;;;10.23;;
20124;SDS011;10223;50.862;4.360;2024-01-07T02:35:48;16.83;;;9.87;;
20124;SDS011;10223;50.862;4.360;2024-01-07T02:38:15;17.53;;;10.47;;
20124;SDS011;10223;50.862;4.360;2024-01-07T02:40:42;20.03;;;9.80;;
20124;SDS011;10223;50.862;4.360;2024-01-07T02:43:10;16.57;;;9.97;;
20124;SDS011;10223;50.862;4.360;2024-01-07T02:45:37;16.37;;;9.03;;
20124;SDS011;10223;50.862;4.360;2024-01-07T02:48:04;16.07;;;10.33;;
20124;SDS011;10223;50.862;4.360;2024-01-07T02:50:32;16.97;;;10.97;;
20124;SDS011;10223;50.862;4.360;2024-01-07T02:52:58;18.03;;;10.83;;
20124;SDS011;10223;50.862;4.360;2024-01-07T02:55:25;18.83;;;10.93;;
20124;SDS011;10223;50.862;4.360;2024-01-07T02:57:52;18.30;;;10.87;;
20124;SDS011;10223;50.862;4.360;2024-01-07T03:00:20;17.73;;;10.80;;
20124;SDS011;10223;50.862;4.360;2024-01-07T03:02:47;19.57;;;10.87;;
20124;SDS011;10223;50.862;4.360;2024-01-07T03:05:14;19.37;;;10.77;;
20124;SDS011;10223;50.862;4.360;2024-01-07T03:07:41;19.40;;;11.13;;
20124;SDS011;10223;50.862;4.360;2024-01-07T03:10:08;18.97;;;12.03;;
20124;SDS011;10223;50.862;4.360;2024-01-07T03:12:35;19.47;;;11.53;;
20124;SDS011;10223;50.862;4.360;2024-01-07T03:15:02;22.23;;;12.80;;
20124;SDS011;10223;50.862;4.360;2024-01-07T03:17:32;19.37;;;11.87;;
20124;SDS011;10223;50.862;4.360;2024-01-07T03:19:59;19.83;;;11.87;;
20124;SDS011;10223;50.862;4.360;2024-01-07T03:22:26;20.23;;;12.47;;
20124;SDS011;10223;50.862;4.360;2024-01-07T03:24:53;21.27;;;12.53;;
20124;SDS011;10223;50.862;4.360;2024-01-07T03:27:20;22.37;;;12.87;;
20124;SDS011;10223;50.862;4.360;2024-01-07T03:29:47;21.87;;;12.87;;
20124;SDS011;10223;50.862;4.360;2024-01-07T03:32:14;20.00;;;12.10;;
20124;SDS011;10223;50.862;4.360;2024-01-07T03:34:42;20.10;;;12.00;;
20124;SDS011;10223;50.862;4.360;2024-01-07T03:37:09;23.57;;;13.47;;
20124;SDS011;10223;50.862;4.360;2024-01-07T03:39:36;23.07;;;13.33;;
20124;SDS011;10223;50.862;4.360;2024-01-07T03:42:03;23.77;;;14.17;;
20124;SDS011;10223;50.862;4.360;2024-01-07T03:44:31;27.23;;;14.10;;
20124;SDS011;10223;50.862;4.360;2024-01-07T03:46:58;26.40;;;15.37;;
20124;SDS011;10223;50.862;4.360;2024-01-07T03:49:25;27.77;;;15.43;;
20124;SDS011;10223;50.862;4.360;2024-01-07T03:51:53;26.53;;;14.43;;
20124;SDS011;10223;50.862;4.360;2024-01-07T03:54:20;25.23;;;14.73;;
20124;SDS011;10223;50.862;4.360;2024-01-07T03:56:47;26.23;;;15.13;;
20124;SDS011;10223;50.862;4.360;2024-01-07T03:59:14;27.17;;;15.20;;
20124;SDS011;10223;50.862;4.360;2024-01-07T04:01:41;27.57;;;14.60;;
20124;SDS011;10223;50.862;4.360;2024-01-07T04:04:08;24.63;;;13.67;;
20124;SDS011;10223;50.862;4.360;2024-01-07T04:06:35;31.40;;;17.07;;
20124;SDS011;10223;50.862;4.360;2024-01-07T04:09:03;28.27;;;15.30;;
20124;SDS011;10223;50.862;4.360;2024-01-07T04:11:30;28.97;;;15.80;;
20124;SDS011;10223;50.862;4.360;2024-01-07T04:13:57;26.73;;;14.93;;
20124;SDS011;10223;50.862;4.360;2024-01-07T04:16:24;29.57;;;16.73;;
20124;SDS011;10223;50.862;4.360;2024-01-07T04:18:51;30.57;;;16.30;;
20124;SDS011;10223;50.862;4.360;2024-01-07T04:21:18;31.83;;;16.70;;
20124;SDS011;10223;50.862;4.360;2024-01-07T04:23:45;34.00;;;18.27;;
20124;SDS011;10223;50.862;4.360;2024-01-07T04:26:13;30.87;;;17.37;;
20124;SDS011;10223;50.862;4.360;2024-01-07T04:28:40;34.40;;;17.60;;
20124;SDS011;10223;50.862;4.360;2024-01-07T04:31:08;37.53;;;18.67;;
20124;SDS011;10223;50.862;4.360;2024-01-07T04:33:35;35.83;;;17.13;;
20124;SDS011;10223;50.862;4.360;2024-01-07T04:36:02;36.50;;;19.60;;
20124;SDS011;10223;50.862;4.360;2024-01-07T04:38:29;36.67;;;17.93;;
20124;SDS011;10223;50.862;4.360;2024-01-07T04:40:56;36.73;;;19.67;;
20124;SDS011;10223;50.862;4.360;2024-01-07T04:43:24;36.23;;;20.13;;
20124;SDS011;10223;50.862;4.360;2024-01-07T04:45:51;36.83;;;19.43;;
20124;SDS011;10223;50.862;4.360;2024-01-07T04:48:18;38.03;;;19.70;;
20124;SDS011;10223;50.862;4.360;2024-01-07T04:50:45;40.03;;;19.83;;
20124;SDS011;10223;50.862;4.360;2024-01-07T04:53:12;37.70;;;20.57;;
20124;SDS011;10223;50.862;4.360;2024-01-07T04:55:38;36.63;;;19.70;;
20124;SDS011;10223;50.862;4.360;2024-01-07T04:58:05;38.97;;;20.97;;
20124;SDS011;10223;50.862;4.360;2024-01-07T05:00:34;39.57;;;21.23;;
20124;SDS011;10223;50.862;4.360;2024-01-07T05:03:00;43.43;;;22.13;;
20124;SDS011;10223;50.862;4.360;2024-01-07T05:05:27;41.00;;;20.07;;
20124;SDS011;10223;50.862;4.360;2024-01-07T05:07:54;41.87;;;21.37;;
20124;SDS011;10223;50.862;4.360;2024-01-07T05:10:24;37.70;;;20.60;;
20124;SDS011;10223;50.862;4.360;2024-01-07T05:12:51;38.83;;;19.97;;
20124;SDS011;10223;50.862;4.360;2024-01-07T05:15:17;45.13;;;21.07;;
20124;SDS011;10223;50.862;4.360;2024-01-07T05:17:46;39.90;;;22.03;;
20124;SDS011;10223;50.862;4.360;2024-01-07T05:20:14;40.53;;;21.17;;
20124;SDS011;10223;50.862;4.360;2024-01-07T05:22:41;41.40;;;21.80;;
20124;SDS011;10223;50.862;4.360;2024-01-07T05:25:08;38.30;;;19.70;;
20124;SDS011;10223;50.862;4.360;2024-01-07T05:27:35;43.53;;;22.03;;
20124;SDS011;10223;50.862;4.360;2024-01-07T05:30:03;39.00;;;21.37;;
20124;SDS011;10223;50.862;4.360;2024-01-07T05:32:30;42.93;;;21.10;;
20124;SDS011;10223;50.862;4.360;2024-01-07T05:34:59;40.40;;;20.33;;
20124;SDS011;10223;50.862;4.360;2024-01-07T05:37:26;37.73;;;21.60;;
20124;SDS011;10223;50.862;4.360;2024-01-07T05:39:53;35.70;;;20.33;;
20124;SDS011;10223;50.862;4.360;2024-01-07T05:42:20;36.27;;;20.00;;
20124;SDS011;10223;50.862;4.360;2024-01-07T05:44:47;36.73;;;21.27;;
20124;SDS011;10223;50.862;4.360;2024-01-07T05:47:13;34.57;;;19.23;;
20124;SDS011;10223;50.862;4.360;2024-01-07T05:49:41;33.67;;;19.97;;
20124;SDS011;10223;50.862;4.360;2024-01-07T05:52:10;35.07;;;18.57;;
20124;SDS011;10223;50.862;4.360;2024-01-07T05:54:36;35.80;;;19.10;;
20124;SDS011;10223;50.862;4.360;2024-01-07T05:57:03;38.37;;;19.40;;
20124;SDS011;10223;50.862;4.360;2024-01-07T05:59:30;37.67;;;19.30;;
20124;SDS011;10223;50.862;4.360;2024-01-07T06:01:58;42.03;;;20.87;;
20124;SDS011;10223;50.862;4.360;2024-01-07T06:04:25;38.03;;;20.13;;
20124;SDS011;10223;50.862;4.360;2024-01-07T06:06:52;38.67;;;20.10;;
20124;SDS011;10223;50.862;4.360;2024-01-07T06:09:20;39.43;;;19.03;;
20124;SDS011;10223;50.862;4.360;2024-01-07T06:11:47;37.47;;;18.70;;
20124;SDS011;10223;50.862;4.360;2024-01-07T06:14:14;36.70;;;18.63;;
20124;SDS011;10223;50.862;4.360;2024-01-07T06:16:41;38.97;;;19.67;;
20124;SDS011;10223;50.862;4.360;2024-01-07T06:19:08;34.77;;;18.53;;
20124;SDS011;10223;50.862;4.360;2024-01-07T06:21:35;37.77;;;19.00;;
20124;SDS011;10223;50.862;4.360;2024-01-07T06:24:02;39.10;;;20.57;;
20124;SDS011;10223;50.862;4.360;2024-01-07T06:26:30;35.13;;;18.87;;
20124;SDS011;10223;50.862;4.360;2024-01-07T06:28:57;38.70;;;19.97;;
20124;SDS011;10223;50.862;4.360;2024-01-07T06:31:26;39.40;;;19.40;;
20124;SDS011;10223;50.862;4.360;2024-01-07T06:33:53;43.67;;;21.63;;
20124;SDS011;10223;50.862;4.360;2024-01-07T06:36:21;40.83;;;21.43;;
20124;SDS011;10223;50.862;4.360;2024-01-07T06:38:48;41.90;;;19.87;;
20124;SDS011;10223;50.862;4.360;2024-01-07T06:41:15;46.90;;;21.40;;
20124;SDS011;10223;50.862;4.360;2024-01-07T06:43:43;44.13;;;20.60;;
20124;SDS011;10223;50.862;4.360;2024-01-07T06:46:10;46.10;;;22.43;;
20124;SDS011;10223;50.862;4.360;2024-01-07T06:48:37;46.17;;;21.70;;
20124;SDS011;10223;50.862;4.360;2024-01-07T06:51:05;40.63;;;20.20;;
20124;SDS011;10223;50.862;4.360;2024-01-07T06:53:32;44.93;;;21.33;;
20124;SDS011;10223;50.862;4.360;2024-01-07T06:55:58;46.47;;;21.77;;
20124;SDS011;10223;50.862;4.360;2024-01-07T06:58:25;44.17;;;21.77;;
20124;SDS011;10223;50.862;4.360;2024-01-07T07:00:53;47.43;;;22.67;;
20124;SDS011;10223;50.862;4.360;2024-01-07T07:03:21;42.53;;;20.67;;
20124;SDS011;10223;50.862;4.360;2024-01-07T07:05:48;44.33;;;22.03;;
20124;SDS011;10223;50.862;4.360;2024-01-07T07:08:15;43.30;;;21.60;;
20124;SDS011;10223;50.862;4.360;2024-01-07T07:10:42;43.40;;;20.93;;
20124;SDS011;10223;50.862;4.360;2024-01-07T07:13:09;48.00;;;21.50;;
20124;SDS011;10223;50.862;4.360;2024-01-07T07:15:36;52.57;;;23.00;;
20124;SDS011;10223;50.862;4.360;2024-01-07T07:18:05;48.50;;;22.13;;
20124;SDS011;10223;50.862;4.360;2024-01-07T07:20:32;45.97;;;21.63;;
20124;SDS011;10223;50.862;4.360;2024-01-07T07:22:59;46.57;;;22.87;;
20124;SDS011;10223;50.862;4.360;2024-01-07T07:25:26;49.33;;;22.27;;
20124;SDS011;10223;50.862;4.360;2024-01-07T07:27:53;47.00;;;20.83;;
20124;SDS011;10223;50.862;4.360;2024-01-07T07:30:21;52.20;;;22.07;;
20124;SDS011;10223;50.862;4.360;2024-01-07T07:32:48;47.20;;;22.17;;
20124;SDS011;10223;50.862;4.360;2024-01-07T07:35:16;49.27;;;21.30;;
20124;SDS011;10223;50.862;4.360;2024-01-07T07:37:43;44.97;;;20.80;;
20124;SDS011;10223;50.862;4.360;2024-01-07T07:40:11;47.80;;;21.60;;
20124;SDS011;10223;50.862;4.360;2024-01-07T07:42:38;46.60;;;20.07;;
20124;SDS011;10223;50.862;4.360;2024-01-07T07:45:06;46.13;;;20.20;;
20124;SDS011;10223;50.862;4.360;2024-01-07T07:47:33;48.10;;;20.93;;
20124;SDS011;10223;50.862;4.360;2024-01-07T07:50:00;46.20;;;22.53;;
20124;SDS011;10223;50.862;4.360;2024-01-07T07:52:28;49.13;;;21.77;;
20124;SDS011;10223;50.862;4.360;2024-01-07T07:54:55;49.77;;;21.17;;
20124;SDS011;10223;50.862;4.360;2024-01-07T07:57:23;47.83;;;21.67;;
20124;SDS011;10223;50.862;4.360;2024-01-07T07:59:50;40.17;;;19.60;;
20124;SDS011;10223;50.862;4.360;2024-01-07T08:02:18;45.50;;;22.17;;
20124;SDS011;10223;50.862;4.360;2024-01-07T08:04:46;42.40;;;20.47;;
20124;SDS011;10223;50.862;4.360;2024-01-07T08:07:13;53.30;;;25.17;;
20124;SDS011;10223;50.862;4.360;2024-01-07T08:09:41;56.67;;;25.07;;
20124;SDS011;10223;50.862;4.360;2024-01-07T08:12:08;54.73;;;25.67;;
20124;SDS011;10223;50.862;4.360;2024-01-07T08:14:37;57.93;;;26.67;;
20124;SDS011;10223;50.862;4.360;2024-01-07T08:17:06;52.10;;;24.03;;
20124;SDS011;10223;50.862;4.360;2024-01-07T08:19:33;60.87;;;27.43;;
20124;SDS011;10223;50.862;4.360;2024-01-07T08:22:00;59.77;;;26.23;;
20124;SDS011;10223;50.862;4.360;2024-01-07T08:24:27;54.87;;;24.47;;
20124;SDS011;10223;50.862;4.360;2024-01-07T08:26:55;52.67;;;25.30;;
20124;SDS011;10223;50.862;4.360;2024-01-07T08:29:22;53.13;;;24.40;;
20124;SDS011;10223;50.862;4.360;2024-01-07T08:31:49;50.97;;;24.73;;
20124;SDS011;10223;50.862;4.360;2024-01-07T08:34:16;52.97;;;24.27;;
20124;SDS011;10223;50.862;4.360;2024-01-07T08:36:43;50.70;;;23.17;;
20124;SDS011;10223;50.862;4.360;2024-01-07T08:39:09;50.83;;;22.30;;
20124;SDS011;10223;50.862;4.360;2024-01-07T08:41:36;39.70;;;20.20;;
20124;SDS011;10223;50.862;4.360;2024-01-07T08:44:05;47.50;;;21.87;;
20124;SDS011;10223;50.862;4.360;2024-01-07T08:46:33;45.77;;;22.50;;
20124;SDS011;10223;50.862;4.360;2024-01-07T08:49:00;47.83;;;22.90;;
20124;SDS011;10223;50.862;4.360;2024-01-07T08:51:27;39.40;;;19.83;;
20124;SDS011;10223;50.862;4.360;2024-01-07T08:53:54;38.63;;;19.87;;
20124;SDS011;10223;50.862;4.360;2024-01-07T08:56:24;35.93;;;18.03;;
20124;SDS011;10223;50.862;4.360;2024-01-07T08:58:51;38.87;;;19.50;;
20124;SDS011;10223;50.862;4.360;2024-01-07T09:01:19;36.80;;;18.40;;
20124;SDS011;10223;50.862;4.360;2024-01-07T09:03:46;31.40;;;16.37;;
20124;SDS011;10223;50.862;4.360;2024-01-07T09:06:13;34.03;;;18.13;;
20124;SDS011;10223;50.862;4.360;2024-01-07T09:08:40;35.17;;;16.37;;
20124;SDS011;10223;50.862;4.360;2024-01-07T09:11:07;32.67;;;18.27;;
20124;SDS011;10223;50.862;4.360;2024-01-07T09:13:36;34.53;;;19.47;;
20124;SDS011;10223;50.862;4.360;2024-01-07T09:16:03;26.90;;;14.83;;
20124;SDS011;10223;50.862;4.360;2024-01-07T09:18:31;32.87;;;17.80;;
20124;SDS011;10223;50.862;4.360;2024-01-07T09:20:58;28.40;;;15.57;;
20124;SDS011;10223;50.862;4.360;2024-01-07T09:23:25;27.43;;;15.30;;
20124;SDS011;10223;50.862;4.360;2024-01-07T09:25:52;28.67;;;15.63;;
20124;SDS011;10223;50.862;4.360;2024-01-07T09:28:19;28.20;;;15.57;;
20124;SDS011;10223;50.862;4.360;2024-01-07T09:30:46;30.07;;;16.80;;
20124;SDS011;10223;50.862;4.360;2024-01-07T09:33:13;31.60;;;16.73;;
20124;SDS011;10223;50.862;4.360;2024-01-07T09:35:41;29.13;;;16.23;;
20124;SDS011;10223;50.862;4.360;2024-01-07T09:38:09;28.67;;;16.77;;
20124;SDS011;10223;50.862;4.360;2024-01-07T09:43:04;28.83;;;15.00;;
20124;SDS011;10223;50.862;4.360;2024-01-07T09:45:32;28.27;;;15.93;;
20124;SDS011;10223;50.862;4.360;2024-01-07T09:47:59;31.87;;;17.67;;
20124;SDS011;10223;50.862;4.360;2024-01-07T09:50:26;31.47;;;16.83;;
20124;SDS011;10223;50.862;4.360;2024-01-07T09:52:55;30.97;;;16.47;;
20124;SDS011;10223;50.862;4.360;2024-01-07T09:55:26;30.40;;;16.53;;
20124;SDS011;10223;50.862;4.360;2024-01-07T09:57:54;33.63;;;17.20;;
20124;SDS011;10223;50.862;4.360;2024-01-07T10:00:21;31.00;;;16.53;;
20124;SDS011;10223;50.862;4.360;2024-01-07T10:02:48;34.00;;;18.87;;
20124;SDS011;10223;50.862;4.360;2024-01-07T10:05:15;32.60;;;20.10;;
20124;SDS011;10223;50.862;4.360;2024-01-07T10:07:42;33.07;;;18.50;;
20124;SDS011;10223;50.862;4.360;2024-01-07T10:10:14;31.70;;;17.10;;
20124;SDS011;10223;50.862;4.360;2024-01-07T10:12:43;30.57;;;16.23;;
20124;SDS011;10223;50.862;4.360;2024-01-07T10:15:11;30.13;;;16.33;;
20124;SDS011;10223;50.862;4.360;2024-01-07T10:17:38;35.67;;;18.73;;
20124;SDS011;10223;50.862;4.360;2024-01-07T10:20:07;32.23;;;16.60;;
20124;SDS011;10223;50.862;4.360;2024-01-07T10:22:35;32.43;;;19.60;;
20124;SDS011;10223;50.862;4.360;2024-01-07T10:25:03;31.80;;;16.70;;
20124;SDS011;10223;50.862;4.360;2024-01-07T10:27:34;35.43;;;17.77;;
20124;SDS011;10223;50.862;4.360;2024-01-07T10:30:03;31.63;;;16.97;;
20124;SDS011;10223;50.862;4.360;2024-01-07T10:32:31;33.70;;;16.87;;
20124;SDS011;10223;50.862;4.360;2024-01-07T10:35:01;32.37;;;17.13;;
20124;SDS011;10223;50.862;4.360;2024-01-07T10:37:29;31.23;;;17.27;;
20124;SDS011;10223;50.862;4.360;2024-01-07T10:39:57;28.47;;;15.80;;
20124;SDS011;10223;50.862;4.360;2024-01-07T10:42:28;31.43;;;17.17;;
20124;SDS011;10223;50.862;4.360;2024-01-07T10:44:58;34.90;;;18.87;;
20124;SDS011;10223;50.862;4.360;2024-01-07T10:47:25;30.83;;;15.90;;
20124;SDS011;10223;50.862;4.360;2024-01-07T10:49:56;31.93;;;17.20;;
20124;SDS011;10223;50.862;4.360;2024-01-07T10:52:25;32.00;;;17.07;;
20124;SDS011;10223;50.862;4.360;2024-01-07T10:54:53;34.37;;;17.10;;
20124;SDS011;10223;50.862;4.360;2024-01-07T10:57:24;31.43;;;18.10;;
20124;SDS011;10223;50.862;4.360;2024-01-07T10:59:55;31.83;;;16.77;;
20124;SDS011;10223;50.862;4.360;2024-01-07T11:02:25;28.63;;;16.33;;
20124;SDS011;10223;50.862;4.360;2024-01-07T11:04:54;29.27;;;16.30;;
20124;SDS011;10223;50.862;4.360;2024-01-07T11:07:31;33.60;;;16.60;;
20124;SDS011;10223;50.862;4.360;2024-01-07T11:10:05;30.83;;;16.83;;
20124;SDS011;10223;50.862;4.360;2024-01-07T11:12:36;30.23;;;15.87;;
20124;SDS011;10223;50.862;4.360;2024-01-07T11:15:05;29.87;;;15.17;;
20124;SDS011;10223;50.862;4.360;2024-01-07T11:17:41;29.20;;;17.10;;
20124;SDS011;10223;50.862;4.360;2024-01-07T11:20:13;26.90;;;14.63;;
20124;SDS011;10223;50.862;4.360;2024-01-07T11:22:47;28.17;;;15.20;;
20124;SDS011;10223;50.862;4.360;2024-01-07T11:25:30;28.13;;;14.83;;
20124;SDS011;10223;50.862;4.360;2024-01-07T11:27:58;27.10;;;14.83;;
20124;SDS011;10223;50.862;4.360;2024-01-07T11:30:28;24.07;;;13.13;;
20124;SDS011;10223;50.862;4.360;2024-01-07T11:32:58;26.57;;;14.50;;
20124;SDS011;10223;50.862;4.360;2024-01-07T11:38:20;26.90;;;14.90;;
20124;SDS011;10223;50.862;4.360;2024-01-07T11:40:47;28.10;;;14.00;;
20124;SDS011;10223;50.862;4.360;2024-01-07T11:43:16;25.50;;;13.83;;
20124;SDS011;10223;50.862;4.360;2024-01-07T11:45:45;25.47;;;13.90;;
20124;SDS011;10223;50.862;4.360;2024-01-07T11:48:12;25.13;;;14.17;;
20124;SDS011;10223;50.862;4.360;2024-01-07T11:50:39;26.63;;;15.30;;
20124;SDS011;10223;50.862;4.360;2024-01-07T11:53:06;27.43;;;15.80;;
20124;SDS011;10223;50.862;4.360;2024-01-07T11:55:33;28.30;;;15.60;;
20124;SDS011;10223;50.862;4.360;2024-01-07T11:58:01;26.37;;;15.27;;
20124;SDS011;10223;50.862;4.360;2024-01-07T12:00:30;25.20;;;15.03;;
20124;SDS011;10223;50.862;4.360;2024-01-07T12:02:59;26.23;;;13.87;;
20124;SDS011;10223;50.862;4.360;2024-01-07T12:05:27;26.53;;;14.33;;
20124;SDS011;10223;50.862;4.360;2024-01-07T12:07:54;30.57;;;15.50;;
20124;SDS011;10223;50.862;4.360;2024-01-07T12:10:22;23.33;;;14.30;;
20124;SDS011;10223;50.862;4.360;2024-01-07T12:12:49;23.90;;;14.30;;
20124;SDS011;10223;50.862;4.360;2024-01-07T12:15:17;23.87;;;12.73;;
20124;SDS011;10223;50.862;4.360;2024-01-07T12:17:48;26.63;;;13.43;;
20124;SDS011;10223;50.862;4.360;2024-01-07T12:20:23;24.43;;;11.53;;
20124;SDS011;10223;50.862;4.360;2024-01-07T12:22:51;25.23;;;14.30;;
20124;SDS011;10223;50.862;4.360;2024-01-07T12:25:21;23.70;;;12.50;;
20124;SDS011;10223;50.862;4.360;2024-01-07T12:27:49;25.10;;;12.40;;
20124;SDS011;10223;50.862;4.360;2024-01-07T12:30:18;22.07;;;12.40;;
20124;SDS011;10223;50.862;4.360;2024-01-07T12:32:45;24.03;;;13.30;;
20124;SDS011;10223;50.862;4.360;2024-01-07T12:35:12;25.90;;;13.57;;
20124;SDS011;10223;50.862;4.360;2024-01-07T12:37:41;23.80;;;12.07;;
20124;SDS011;10223;50.862;4.360;2024-01-07T12:40:09;19.87;;;11.60;;
20124;SDS011;10223;50.862;4.360;2024-01-07T12:42:37;27.07;;;12.70;;
20124;SDS011;10223;50.862;4.360;2024-01-07T12:45:09;24.10;;;13.60;;
20124;SDS011;10223;50.862;4.360;2024-01-07T12:47:37;20.37;;;11.23;;
20124;SDS011;10223;50.862;4.360;2024-01-07T12:50:04;25.60;;;12.97;;
20124;SDS011;10223;50.862;4.360;2024-01-07T12:52:31;21.13;;;12.57;;
20124;SDS011;10223;50.862;4.360;2024-01-07T12:54:59;19.33;;;11.47;;
20124;SDS011;10223;50.862;4.360;2024-01-07T12:57:26;22.87;;;12.03;;
20124;SDS011;10223;50.862;4.360;2024-01-07T12:59:53;24.73;;;12.80;;
20124;SDS011;10223;50.862;4.360;2024-01-07T13:02:20;27.13;;;13.47;;
20124;SDS011;10223;50.862;4.360;2024-01-07T13:04:48;20.70;;;12.17;;
20124;SDS011;10223;50.862;4.360;2024-01-07T13:07:15;21.90;;;11.80;;
20124;SDS011;10223;50.862;4.360;2024-01-07T13:09:42;21.17;;;12.83;;
20124;SDS011;10223;50.862;4.360;2024-01-07T13:12:11;24.47;;;12.50;;
20124;SDS011;10223;50.862;4.360;2024-01-07T13:14:38;22.53;;;11.87;;
20124;SDS011;10223;50.862;4.360;2024-01-07T13:17:07;22.20;;;12.20;;
20124;SDS011;10223;50.862;4.360;2024-01-07T13:19:35;21.13;;;11.40;;
20124;SDS011;10223;50.862;4.360;2024-01-07T13:22:02;18.20;;;10.97;;
20124;SDS011;10223;50.862;4.360;2024-01-07T13:24:29;20.80;;;11.83;;
20124;SDS011;10223;50.862;4.360;2024-01-07T13:26:56;22.60;;;12.27;;
20124;SDS011;10223;50.862;4.360;2024-01-07T13:29:24;19.60;;;11.40;;
20124;SDS011;10223;50.862;4.360;2024-01-07T13:31:51;19.80;;;11.30;;
20124;SDS011;10223;50.862;4.360;2024-01-07T13:34:18;18.20;;;11.60;;
20124;SDS011;10223;50.862;4.360;2024-01-07T13:36:45;20.57;;;11.33;;
20124;SDS011;10223;50.862;4.360;2024-01-07T13:39:12;21.73;;;12.20;;
20124;SDS011;10223;50.862;4.360;2024-01-07T13:41:41;19.63;;;11.30;;
20124;SDS011;10223;50.862;4.360;2024-01-07T13:44:08;24.17;;;11.67;;
20124;SDS011;10223;50.862;4.360;2024-01-07T13:46:43;21.20;;;13.00;;
20124;SDS011;10223;50.862;4.360;2024-01-07T13:49:11;18.40;;;11.30;;
20124;SDS011;10223;50.862;4.360;2024-01-07T13:51:38;21.57;;;11.27;;
20124;SDS011;10223;50.862;4.360;2024-01-07T13:54:05;18.20;;;10.27;;
20124;SDS011;10223;50.862;4.360;2024-01-07T13:56:34;19.37;;;11.53;;
20124;SDS011;10223;50.862;4.360;2024-01-07T13:59:02;15.97;;;9.63;;
20124;SDS011;10223;50.862;4.360;2024-01-07T14:01:29;17.70;;;10.83;;
20124;SDS011;10223;50.862;4.360;2024-01-07T14:03:58;19.10;;;10.67;;
20124;SDS011;10223;50.862;4.360;2024-01-07T14:06:25;20.43;;;11.57;;
20124;SDS011;10223;50.862;4.360;2024-01-07T14:08:55;19.07;;;10.83;;
20124;SDS011;10223;50.862;4.360;2024-01-07T14:11:22;16.43;;;9.80;;
20124;SDS011;10223;50.862;4.360;2024-01-07T14:13:48;18.00;;;10.90;;
20124;SDS011;10223;50.862;4.360;2024-01-07T14:16:15;16.37;;;10.83;;
20124;SDS011;10223;50.862;4.360;2024-01-07T14:18:42;13.33;;;9.70;;
20124;SDS011;10223;50.862;4.360;2024-01-07T14:21:11;16.67;;;10.17;;
20124;SDS011;10223;50.862;4.360;2024-01-07T14:23:37;18.20;;;11.20;;
20124;SDS011;10223;50.862;4.360;2024-01-07T14:26:04;19.03;;;11.30;;
20124;SDS011;10223;50.862;4.360;2024-01-07T14:28:31;15.43;;;10.73;;
20124;SDS011;10223;50.862;4.360;2024-01-07T14:30:58;19.53;;;10.90;;